Albany, New York
Traffic Map
Current Weather Conditions
Albany, New York
Broken Clouds
Broken Clouds
42°
Feels Like: 42°
Wind Chill: 42° Ceiling: 26000
Heat Index: 42° Visibility: 10mi
Dew Point: 26° Wind: 0mph
Humidity: 53% Direction: ° ()
Pressure: 30.12in Gusts: 0mph
Raw Report DataKALB 260251Z 00000KT 10SM BKN260 06/M03 A3012 RMK AO2 SLP201 T00561033 53033
Traffic Incident Summary
Active as of:
Severity:
Category:
InformationThere was an issue retrieving the traffic information for this location. Please try a different location or try again shortly.
Advertisements
Track Severe Weather on mobile